createdAt,value
2022-12-17T00:00:28.114Z,89
2022-12-17T00:00:58.123Z,89
2022-12-17T00:01:30.130Z,89
2022-12-17T00:02:02.664Z,89
2022-12-17T00:02:34.041Z,89
2022-12-17T00:03:06.193Z,89
2022-12-17T00:03:38.240Z,89
2022-12-17T00:04:09.945Z,89
2022-12-17T00:04:42.121Z,89
2022-12-17T00:05:14.333Z,89
2022-12-17T00:05:46.049Z,89
2022-12-17T00:06:17.709Z,89
2022-12-17T00:06:49.809Z,89
2022-12-17T00:07:21.997Z,89
2022-12-17T00:07:53.990Z,89
2022-12-17T00:08:25.672Z,89
2022-12-17T00:08:57.727Z,89
2022-12-17T00:09:29.667Z,89
2022-12-17T00:10:02.505Z,89
2022-12-17T00:10:33.580Z,89
2022-12-17T00:11:05.846Z,89
2022-12-17T00:11:37.570Z,89
2022-12-17T00:12:09.476Z,89
2022-12-17T00:12:41.993Z,89
2022-12-17T00:13:13.523Z,89
2022-12-17T00:13:45.665Z,89
2022-12-17T00:14:17.354Z,89
2022-12-17T00:14:49.386Z,89
2022-12-17T00:15:07.169Z,89
2022-12-17T00:15:49.460Z,89
2022-12-17T00:16:21.610Z,89
2022-12-17T00:16:53.363Z,89
2022-12-17T00:17:25.339Z,89
2022-12-17T00:17:57.355Z,89
2022-12-17T00:18:29.340Z,89
2022-12-17T00:19:01.497Z,89
2022-12-17T00:19:33.239Z,89
2022-12-17T00:20:05.939Z,89
2022-12-17T00:20:37.296Z,89
2022-12-17T00:21:09.170Z,89
2022-12-17T00:21:41.280Z,89
2022-12-17T00:22:13.121Z,89
2022-12-17T00:22:45.143Z,89
2022-12-17T00:23:17.082Z,90
2022-12-17T00:23:49.163Z,90
2022-12-17T00:24:21.309Z,90
2022-12-17T00:24:52.985Z,90
2022-12-17T00:25:25.599Z,90
2022-12-17T00:25:57.051Z,89
2022-12-17T00:26:28.966Z,90
2022-12-17T00:27:00.941Z,90
2022-12-17T00:27:33.083Z,89
2022-12-17T00:27:49.033Z,89
2022-12-17T00:28:33.212Z,90
2022-12-17T00:29:05.362Z,90
2022-12-17T00:29:21.065Z,90
2022-12-17T00:29:53.017Z,90
2022-12-17T00:30:37.724Z,89
2022-12-17T00:31:08.963Z,89
2022-12-17T00:31:40.690Z,89
2022-12-17T00:32:12.777Z,89
2022-12-17T00:32:44.845Z,89
2022-12-17T00:33:16.720Z,89
2022-12-17T00:33:48.595Z,89
2022-12-17T00:34:05.025Z,89
2022-12-17T00:34:48.700Z,89
2022-12-17T00:35:21.124Z,89
2022-12-17T00:35:52.736Z,89
2022-12-17T00:36:24.624Z,89
2022-12-17T00:36:56.564Z,89
2022-12-17T00:37:28.501Z,90
2022-12-17T00:38:00.570Z,90
2022-12-17T00:38:32.697Z,90
2022-12-17T00:38:48.737Z,90
2022-12-17T00:39:20.657Z,89
2022-12-17T00:39:36.516Z,89
2022-12-17T00:40:08.776Z,89
2022-12-17T00:40:40.351Z,89
2022-12-17T00:41:12.642Z,89
2022-12-17T00:41:44.423Z,89
2022-12-17T00:42:16.359Z,89
2022-12-17T00:42:48.307Z,89
2022-12-17T00:43:05.171Z,89
2022-12-17T00:43:36.722Z,89
2022-12-17T00:44:20.347Z,89
2022-12-17T00:44:52.464Z,89
2022-12-17T00:45:24.758Z,89
2022-12-17T00:45:56.138Z,89
2022-12-17T00:46:28.201Z,89
2022-12-17T00:47:00.314Z,89
2022-12-17T00:47:32.043Z,89
2022-12-17T00:47:48.226Z,89
2022-12-17T00:48:32.040Z,89
2022-12-17T00:49:05.207Z,89
2022-12-17T00:49:36.378Z,89
2022-12-17T00:50:08.175Z,89
2022-12-17T00:50:39.897Z,89
2022-12-17T00:51:12.375Z,89
2022-12-17T00:51:44.172Z,89
2022-12-17T00:52:15.828Z,89
2022-12-17T00:52:47.874Z,89
2022-12-17T00:53:20.047Z,89
2022-12-17T00:53:52.204Z,89
2022-12-17T00:54:23.894Z,89
2022-12-17T00:54:55.869Z,89
2022-12-17T00:55:28.088Z,89
2022-12-17T00:55:59.833Z,89
2022-12-17T00:56:31.658Z,89
2022-12-17T00:57:04.642Z,89
2022-12-17T00:57:35.839Z,89
2022-12-17T00:58:07.479Z,89
2022-12-17T00:58:39.690Z,89
2022-12-17T00:59:11.857Z,89
2022-12-17T00:59:43.661Z,89
2022-12-17T01:00:17.687Z,89
2022-12-17T01:00:47.631Z,89
2022-12-17T01:01:04.928Z,89
2022-12-17T01:01:35.814Z,89
2022-12-17T01:02:19.739Z,89
2022-12-17T01:02:51.994Z,89
2022-12-17T01:03:07.635Z,89
2022-12-17T01:03:39.701Z,89
2022-12-17T01:04:23.642Z,89
2022-12-17T01:04:55.749Z,89
2022-12-17T01:05:27.601Z,89
2022-12-17T01:05:59.184Z,89
2022-12-17T01:06:31.509Z,89
2022-12-17T01:07:04.481Z,89
2022-12-17T01:07:35.290Z,89
2022-12-17T01:08:07.245Z,89
2022-12-17T01:08:39.350Z,89
2022-12-17T01:09:11.421Z,89
2022-12-17T01:09:43.182Z,89
2022-12-17T01:10:15.469Z,89
2022-12-17T01:10:47.171Z,89
2022-12-17T01:11:19.267Z,89
2022-12-17T01:11:51.335Z,89
2022-12-17T01:12:23.199Z,89
2022-12-17T01:12:55.354Z,89
2022-12-17T01:13:27.072Z,89
2022-12-17T01:13:58.855Z,89
2022-12-17T01:14:31.103Z,89
2022-12-17T01:15:06.627Z,89
2022-12-17T01:15:34.967Z,89
2022-12-17T01:16:06.938Z,89
2022-12-17T01:16:38.931Z,89
2022-12-17T01:17:10.877Z,89
2022-12-17T01:17:43.118Z,89
2022-12-17T01:18:14.778Z,89
2022-12-17T01:18:46.799Z,89
2022-12-17T01:19:18.885Z,89
2022-12-17T01:19:50.632Z,89
2022-12-17T01:20:23.047Z,89
2022-12-17T01:20:54.825Z,89
2022-12-17T01:21:26.683Z,89
2022-12-17T01:21:58.504Z,89
2022-12-17T01:22:30.625Z,89
2022-12-17T01:22:46.779Z,89
2022-12-17T01:23:30.678Z,89
2022-12-17T01:24:03.679Z,89
2022-12-17T01:24:34.705Z,89
2022-12-17T01:25:06.882Z,90
2022-12-17T01:25:38.514Z,90
2022-12-17T01:26:10.588Z,90
2022-12-17T01:26:42.478Z,90
2022-12-17T01:27:14.506Z,90
2022-12-17T01:27:46.516Z,90
2022-12-17T01:28:18.572Z,90
2022-12-17T01:28:50.306Z,90
2022-12-17T01:29:22.606Z,90
2022-12-17T01:29:54.563Z,90
2022-12-17T01:30:26.790Z,90
2022-12-17T01:30:58.200Z,89
2022-12-17T01:31:34.573Z,90
2022-12-17T01:32:02.850Z,90
2022-12-17T01:32:34.363Z,90
2022-12-17T01:33:06.274Z,90
2022-12-17T01:33:38.552Z,90
2022-12-17T01:34:10.212Z,90
2022-12-17T01:34:42.298Z,90
2022-12-17T01:35:14.279Z,90
2022-12-17T01:35:46.440Z,90
2022-12-17T01:36:02.602Z,90
2022-12-17T01:36:34.015Z,90
2022-12-17T01:37:18.136Z,90
2022-12-17T01:37:49.897Z,89
2022-12-17T01:38:06.243Z,89
2022-12-17T01:38:37.938Z,89
2022-12-17T01:39:22.236Z,89
2022-12-17T01:39:54.336Z,90
2022-12-17T01:40:26.277Z,90
2022-12-17T01:40:57.885Z,90
2022-12-17T01:41:29.830Z,90
2022-12-17T01:42:02.521Z,89
2022-12-17T01:42:33.951Z,89
2022-12-17T01:43:10.325Z,90
2022-12-17T01:43:38.332Z,90
2022-12-17T01:44:09.822Z,90
2022-12-17T01:44:41.668Z,89
2022-12-17T01:45:14.828Z,89
2022-12-17T01:45:45.938Z,89
2022-12-17T01:46:17.815Z,89
2022-12-17T01:46:49.642Z,89
2022-12-17T01:47:21.944Z,89
2022-12-17T01:47:53.623Z,89
2022-12-17T01:48:25.959Z,89
2022-12-17T01:48:57.588Z,89
2022-12-17T01:49:29.388Z,89
2022-12-17T01:50:02.865Z,89
2022-12-17T01:50:33.744Z,89
2022-12-17T01:51:05.752Z,89
2022-12-17T01:51:37.451Z,89
2022-12-17T01:52:09.452Z,89
2022-12-17T01:52:41.567Z,89
2022-12-17T01:53:13.480Z,89
2022-12-17T01:53:45.485Z,89
2022-12-17T01:54:17.441Z,89
2022-12-17T01:54:49.380Z,89
2022-12-17T01:55:21.786Z,89
2022-12-17T01:55:53.189Z,89
2022-12-17T01:56:25.649Z,89
2022-12-17T01:56:57.159Z,89
2022-12-17T01:57:29.087Z,89
2022-12-17T01:58:01.603Z,89
2022-12-17T01:58:33.352Z,89
2022-12-17T01:59:05.734Z,89
2022-12-17T01:59:37.174Z,90
2022-12-17T02:00:10.078Z,89
2022-12-17T02:00:41.304Z,89
2022-12-17T02:01:13.380Z,89
2022-12-17T02:01:45.343Z,89
2022-12-17T02:02:01.865Z,89
2022-12-17T02:02:45.146Z,90
2022-12-17T02:03:17.088Z,90
2022-12-17T02:03:48.764Z,90
2022-12-17T02:04:20.938Z,90
2022-12-17T02:04:53.168Z,89
2022-12-17T02:05:25.381Z,90
2022-12-17T02:05:56.683Z,89
2022-12-17T02:06:28.744Z,90
2022-12-17T02:07:00.917Z,89
2022-12-17T02:07:32.849Z,90
2022-12-17T02:08:05.427Z,90
2022-12-17T02:08:36.685Z,89
2022-12-17T02:09:08.606Z,89
2022-12-17T02:09:40.773Z,89
2022-12-17T02:10:12.901Z,89
2022-12-17T02:10:44.685Z,89
2022-12-17T02:11:00.843Z,89
2022-12-17T02:11:32.607Z,89
2022-12-17T02:12:16.584Z,89
2022-12-17T02:12:48.498Z,89
2022-12-17T02:13:20.523Z,89
2022-12-17T02:13:52.972Z,89
2022-12-17T02:14:24.862Z,89
2022-12-17T02:14:56.439Z,89
2022-12-17T02:15:28.738Z,89
2022-12-17T02:15:44.718Z,89
2022-12-17T02:16:28.451Z,89
2022-12-17T02:17:00.534Z,89
2022-12-17T02:17:32.353Z,89
2022-12-17T02:18:04.956Z,89
2022-12-17T02:18:36.404Z,89
2022-12-17T02:19:08.312Z,89
2022-12-17T02:19:40.190Z,89
2022-12-17T02:20:12.553Z,89
2022-12-17T02:20:44.391Z,89
2022-12-17T02:21:16.272Z,89
2022-12-17T02:21:48.066Z,89
2022-12-17T02:22:20.208Z,89
2022-12-17T02:22:52.418Z,89
2022-12-17T02:23:24.188Z,89
2022-12-17T02:23:56.510Z,89
2022-12-17T02:24:28.103Z,89
2022-12-17T02:24:59.956Z,89
2022-12-17T02:25:35.340Z,89
2022-12-17T02:26:04.703Z,89
2022-12-17T02:26:36.012Z,89
2022-12-17T02:27:08.079Z,88
2022-12-17T02:27:39.951Z,88
2022-12-17T02:28:11.904Z,88
2022-12-17T02:28:43.902Z,88
2022-12-17T02:29:15.945Z,88
2022-12-17T02:29:47.885Z,88
2022-12-17T02:30:20.250Z,88
2022-12-17T02:30:51.864Z,88
2022-12-17T02:31:23.866Z,88
2022-12-17T02:31:56.035Z,88
2022-12-17T02:32:27.659Z,88
2022-12-17T02:32:43.862Z,88
2022-12-17T02:33:27.633Z,88
2022-12-17T02:33:59.649Z,88
2022-12-17T02:34:31.857Z,88
2022-12-17T02:35:04.692Z,88
2022-12-17T02:35:35.611Z,88
2022-12-17T02:36:07.625Z,88
2022-12-17T02:36:39.522Z,88
2022-12-17T02:37:11.514Z,88
2022-12-17T02:37:43.513Z,88
2022-12-17T02:38:15.469Z,88
2022-12-17T02:38:47.479Z,88
2022-12-17T02:39:19.405Z,88
2022-12-17T02:39:51.416Z,88
2022-12-17T02:40:24.110Z,88
2022-12-17T02:40:57.010Z,88
2022-12-17T02:41:27.193Z,88
2022-12-17T02:41:43.465Z,88
2022-12-17T02:42:15.169Z,88
2022-12-17T02:42:31.594Z,88
2022-12-17T02:43:03.771Z,88
2022-12-17T02:43:35.738Z,88
2022-12-17T02:44:07.139Z,89
2022-12-17T02:44:39.211Z,88
2022-12-17T02:45:12.348Z,88
2022-12-17T02:45:43.275Z,88
2022-12-17T02:45:59.584Z,88
2022-12-17T02:46:31.322Z,88
2022-12-17T02:47:15.199Z,89
2022-12-17T02:47:46.998Z,89
2022-12-17T02:48:19.093Z,89
2022-12-17T02:48:51.017Z,89
2022-12-17T02:49:23.235Z,89
2022-12-17T02:49:55.060Z,89
2022-12-17T02:50:27.115Z,89
2022-12-17T02:50:59.022Z,89
2022-12-17T02:51:31.050Z,89
2022-12-17T02:52:03.568Z,89
2022-12-17T02:52:35.309Z,89
2022-12-17T02:53:06.822Z,89
2022-12-17T02:53:38.842Z,89
2022-12-17T02:54:10.745Z,89
2022-12-17T02:54:42.901Z,89
2022-12-17T02:55:15.018Z,89
2022-12-17T02:55:46.874Z,89
2022-12-17T02:56:18.663Z,89
2022-12-17T02:56:50.791Z,89
2022-12-17T02:57:23.021Z,89
2022-12-17T02:57:54.828Z,88
2022-12-17T02:58:26.563Z,88
2022-12-17T02:58:42.821Z,88
2022-12-17T02:59:14.548Z,88
2022-12-17T02:59:30.539Z,88
2022-12-17T03:00:06.048Z,88
2022-12-17T03:00:34.833Z,88
2022-12-17T03:01:06.442Z,88
2022-12-17T03:01:38.657Z,88
2022-12-17T03:02:10.718Z,88
2022-12-17T03:02:42.578Z,88
2022-12-17T03:02:58.606Z,88
2022-12-17T03:03:30.474Z,88
2022-12-17T03:04:14.508Z,88
2022-12-17T03:04:46.458Z,88
2022-12-17T03:05:43.292Z,88
2022-12-17T03:05:50.359Z,88
2022-12-17T03:06:22.512Z,88
2022-12-17T03:06:54.576Z,88
2022-12-17T03:07:26.238Z,88
2022-12-17T03:07:42.314Z,88
2022-12-17T03:08:26.398Z,88
2022-12-17T03:08:58.305Z,88
2022-12-17T03:09:29.946Z,88
2022-12-17T03:10:03.398Z,88
2022-12-17T03:10:34.246Z,88
2022-12-17T03:11:06.306Z,89
2022-12-17T03:11:38.142Z,89
2022-12-17T03:12:10.007Z,89
2022-12-17T03:12:42.196Z,88
2022-12-17T03:13:14.152Z,88
2022-12-17T03:13:45.799Z,89
2022-12-17T03:14:17.901Z,89
2022-12-17T03:14:50.026Z,89
2022-12-17T03:15:22.638Z,89
2022-12-17T03:15:53.975Z,89
2022-12-17T03:16:26.147Z,89
2022-12-17T03:16:42.092Z,89
2022-12-17T03:17:13.926Z,89
2022-12-17T03:17:29.892Z,89
2022-12-17T03:18:02.576Z,89
2022-12-17T03:18:33.690Z,89
2022-12-17T03:19:06.017Z,89
2022-12-17T03:19:37.833Z,89
2022-12-17T03:20:10.162Z,89
2022-12-17T03:20:41.809Z,89
2022-12-17T03:20:58.600Z,89
2022-12-17T03:21:30.349Z,89
2022-12-17T03:22:13.824Z,89
2022-12-17T03:22:45.727Z,89
2022-12-17T03:23:17.712Z,89
2022-12-17T03:23:49.558Z,89
2022-12-17T03:24:21.681Z,89
2022-12-17T03:24:53.487Z,89
2022-12-17T03:25:25.844Z,89
2022-12-17T03:25:41.747Z,89
2022-12-17T03:26:25.683Z,89
2022-12-17T03:26:57.459Z,89
2022-12-17T03:27:29.369Z,89
2022-12-17T03:28:02.055Z,89
2022-12-17T03:28:33.308Z,89
2022-12-17T03:29:06.005Z,89
2022-12-17T03:29:37.278Z,89
2022-12-17T03:30:10.190Z,89
2022-12-17T03:30:47.129Z,89
2022-12-17T03:31:13.493Z,89
2022-12-17T03:31:45.438Z,89
2022-12-17T03:32:17.295Z,89
2022-12-17T03:32:49.259Z,89
2022-12-17T03:33:21.226Z,89
2022-12-17T03:33:53.407Z,89
2022-12-17T03:34:25.411Z,89
2022-12-17T03:34:41.393Z,89
2022-12-17T03:35:13.441Z,89
2022-12-17T03:35:29.183Z,89
2022-12-17T03:36:01.516Z,89
2022-12-17T03:36:33.250Z,89
2022-12-17T03:37:05.782Z,89
2022-12-17T03:37:37.033Z,89
2022-12-17T03:38:09.117Z,89
2022-12-17T03:38:41.063Z,89
2022-12-17T03:38:57.043Z,89
2022-12-17T03:39:28.852Z,89
2022-12-17T03:40:13.539Z,89
2022-12-17T03:40:44.953Z,89
2022-12-17T03:41:16.798Z,89
2022-12-17T03:41:48.728Z,89
2022-12-17T03:42:20.908Z,89
2022-12-17T03:42:52.926Z,89
2022-12-17T03:43:24.926Z,89
2022-12-17T03:43:40.955Z,89
2022-12-17T03:44:24.946Z,89
2022-12-17T03:44:56.778Z,89
2022-12-17T03:45:29.015Z,89
2022-12-17T03:46:00.624Z,89
2022-12-17T03:46:32.947Z,89
2022-12-17T03:47:05.450Z,89
2022-12-17T03:47:36.463Z,89
2022-12-17T03:48:08.602Z,89
2022-12-17T03:48:40.570Z,89
2022-12-17T03:49:12.848Z,89
2022-12-17T03:49:44.770Z,89
2022-12-17T03:50:16.675Z,89
2022-12-17T03:50:48.399Z,89
2022-12-17T03:51:20.597Z,89
2022-12-17T03:51:52.393Z,89
2022-12-17T03:52:24.585Z,89
2022-12-17T03:52:40.548Z,89
2022-12-17T03:53:12.381Z,89
2022-12-17T03:53:56.266Z,89
2022-12-17T03:54:12.608Z,89
2022-12-17T03:54:56.261Z,89
2022-12-17T03:55:28.537Z,89
2022-12-17T03:56:00.213Z,89
2022-12-17T03:56:32.262Z,89
2022-12-17T03:57:05.007Z,89
2022-12-17T03:57:36.187Z,89
2022-12-17T03:58:08.321Z,89
2022-12-17T03:58:40.039Z,89
2022-12-17T03:58:56.325Z,89
2022-12-17T03:59:28.170Z,89
2022-12-17T04:00:18.639Z,89
2022-12-17T04:00:44.276Z,89
2022-12-17T04:01:16.063Z,89
2022-12-17T04:01:48.134Z,89
2022-12-17T04:02:20.288Z,89
2022-12-17T04:02:52.169Z,89
2022-12-17T04:03:24.081Z,89
2022-12-17T04:03:40.435Z,89
2022-12-17T04:04:24.155Z,89
2022-12-17T04:04:56.019Z,89
2022-12-17T04:05:28.192Z,89
2022-12-17T04:05:59.671Z,90
2022-12-17T04:06:31.972Z,90
2022-12-17T04:07:04.071Z,90
2022-12-17T04:07:35.919Z,90
2022-12-17T04:08:07.793Z,90
2022-12-17T04:08:39.663Z,90
2022-12-17T04:08:55.825Z,90
2022-12-17T04:09:39.705Z,90
2022-12-17T04:10:12.094Z,90
2022-12-17T04:10:43.644Z,90
2022-12-17T04:11:15.532Z,90
2022-12-17T04:11:47.613Z,90
2022-12-17T04:12:19.583Z,90
2022-12-17T04:12:51.558Z,90
2022-12-17T04:13:23.657Z,90
2022-12-17T04:13:41.315Z,90
2022-12-17T04:14:11.613Z,90
2022-12-17T04:14:27.585Z,90
2022-12-17T04:14:59.476Z,89
2022-12-17T04:15:31.995Z,89
2022-12-17T04:16:04.201Z,89
2022-12-17T04:16:35.724Z,89
2022-12-17T04:17:07.237Z,89
2022-12-17T04:17:39.385Z,89
2022-12-17T04:17:55.575Z,89
2022-12-17T04:18:27.220Z,89
2022-12-17T04:19:11.485Z,89
2022-12-17T04:19:43.176Z,89
2022-12-17T04:20:15.487Z,89
2022-12-17T04:20:47.240Z,89
2022-12-17T04:21:19.322Z,89
2022-12-17T04:21:51.254Z,89
2022-12-17T04:22:23.208Z,89
2022-12-17T04:22:39.318Z,89
2022-12-17T04:23:23.453Z,89
2022-12-17T04:23:55.340Z,89
2022-12-17T04:24:27.005Z,89
2022-12-17T04:24:59.040Z,89
2022-12-17T04:25:31.512Z,89
2022-12-17T04:26:03.950Z,89
2022-12-17T04:26:35.048Z,89
2022-12-17T04:27:06.869Z,89
2022-12-17T04:27:39.048Z,89
2022-12-17T04:28:11.028Z,89
2022-12-17T04:28:42.728Z,89
2022-12-17T04:29:14.967Z,89
2022-12-17T04:29:46.856Z,89
2022-12-17T04:30:19.375Z,89
2022-12-17T04:30:50.918Z,90
2022-12-17T04:31:23.020Z,90
2022-12-17T04:31:39.100Z,90
2022-12-17T04:32:10.805Z,90
2022-12-17T04:32:29.111Z,90
2022-12-17T04:32:58.635Z,90
2022-12-17T04:33:30.742Z,90
2022-12-17T04:34:04.026Z,90
2022-12-17T04:34:34.816Z,90
2022-12-17T04:35:06.888Z,90
2022-12-17T04:35:38.726Z,90
2022-12-17T04:35:55.213Z,90
2022-12-17T04:36:26.478Z,90
2022-12-17T04:37:10.580Z,90
2022-12-17T04:37:42.606Z,90
2022-12-17T04:38:14.601Z,90
2022-12-17T04:38:48.890Z,90
2022-12-17T04:39:18.474Z,90
2022-12-17T04:39:50.510Z,90
2022-12-17T04:40:22.693Z,90
2022-12-17T04:40:38.582Z,90
2022-12-17T04:41:22.589Z,90
2022-12-17T04:41:54.571Z,90
2022-12-17T04:42:26.172Z,90
2022-12-17T04:42:58.227Z,90
2022-12-17T04:43:30.376Z,90
2022-12-17T04:44:03.679Z,90
2022-12-17T04:44:34.137Z,90
2022-12-17T04:45:07.446Z,90
2022-12-17T04:45:38.311Z,90
2022-12-17T04:46:10.239Z,90
2022-12-17T04:46:42.375Z,90
2022-12-17T04:47:14.548Z,90
2022-12-17T04:47:46.121Z,90
2022-12-17T04:48:18.101Z,90
2022-12-17T04:48:50.025Z,90
2022-12-17T04:49:22.097Z,90
2022-12-17T04:49:54.267Z,90
2022-12-17T04:50:26.375Z,90
2022-12-17T04:50:57.809Z,90
2022-12-17T04:51:29.923Z,90
2022-12-17T04:52:02.904Z,90
2022-12-17T04:52:34.100Z,90
2022-12-17T04:53:06.210Z,90
2022-12-17T04:53:38.351Z,90
2022-12-17T04:53:54.072Z,90
2022-12-17T04:54:25.745Z,90
2022-12-17T04:55:10.143Z,90
2022-12-17T04:55:41.820Z,90
2022-12-17T04:56:13.788Z,90
2022-12-17T04:56:45.819Z,90
2022-12-17T04:57:17.789Z,90
2022-12-17T04:57:49.603Z,90
2022-12-17T04:58:05.907Z,90
2022-12-17T04:58:37.755Z,90
2022-12-17T04:59:21.988Z,90
2022-12-17T04:59:53.806Z,90
2022-12-17T05:00:26.022Z,90
2022-12-17T05:00:57.525Z,90
2022-12-17T05:01:29.658Z,90
2022-12-17T05:02:02.697Z,90
2022-12-17T05:02:37.083Z,90
2022-12-17T05:03:05.935Z,90
2022-12-17T05:03:37.920Z,90
2022-12-17T05:04:09.606Z,90
2022-12-17T05:04:41.578Z,90
2022-12-17T05:05:13.636Z,90
2022-12-17T05:05:45.993Z,90
2022-12-17T05:06:17.620Z,91
2022-12-17T05:06:49.180Z,90
2022-12-17T05:07:21.916Z,91
2022-12-17T05:07:37.381Z,91
2022-12-17T05:08:09.219Z,91
2022-12-17T05:08:25.472Z,90
2022-12-17T05:08:57.099Z,90
2022-12-17T05:09:29.195Z,90
2022-12-17T05:10:02.272Z,90
2022-12-17T05:10:33.294Z,90
2022-12-17T05:11:05.638Z,90
2022-12-17T05:11:37.142Z,90
2022-12-17T05:11:53.232Z,90
2022-12-17T05:12:25.207Z,90
2022-12-17T05:13:09.236Z,90
2022-12-17T05:13:41.053Z,90
2022-12-17T05:14:12.999Z,90
2022-12-17T05:14:45.195Z,91
2022-12-17T05:15:18.019Z,90
2022-12-17T05:15:53.048Z,90
2022-12-17T05:16:21.006Z,90
2022-12-17T05:16:36.970Z,91
2022-12-17T05:17:20.913Z,91
2022-12-17T05:17:52.931Z,91
2022-12-17T05:18:25.026Z,91
2022-12-17T05:18:56.820Z,91
2022-12-17T05:19:28.695Z,91
2022-12-17T05:20:01.156Z,91
2022-12-17T05:20:32.737Z,91
2022-12-17T05:21:05.117Z,91
2022-12-17T05:21:36.824Z,91
2022-12-17T05:22:08.820Z,91
2022-12-17T05:22:40.525Z,91
2022-12-17T05:23:12.792Z,91
2022-12-17T05:23:44.807Z,90
2022-12-17T05:24:16.627Z,90
2022-12-17T05:24:48.551Z,90
2022-12-17T05:25:20.851Z,90
2022-12-17T05:25:36.670Z,90
2022-12-17T05:26:08.605Z,90
2022-12-17T05:26:24.853Z,90
2022-12-17T05:26:56.315Z,90
2022-12-17T05:27:28.392Z,90
2022-12-17T05:28:00.448Z,90
2022-12-17T05:28:32.619Z,90
2022-12-17T05:29:04.520Z,91
2022-12-17T05:29:36.425Z,91
2022-12-17T05:29:52.475Z,91
2022-12-17T05:30:29.884Z,91
2022-12-17T05:31:08.423Z,91
2022-12-17T05:31:40.245Z,91
2022-12-17T05:32:12.507Z,91
2022-12-17T05:32:44.530Z,91
2022-12-17T05:33:16.199Z,91
2022-12-17T05:33:48.096Z,91
2022-12-17T05:34:20.123Z,91
2022-12-17T05:34:36.261Z,91
2022-12-17T05:35:20.408Z,91
2022-12-17T05:35:52.252Z,91
2022-12-17T05:36:24.071Z,91
2022-12-17T05:36:56.005Z,91
2022-12-17T05:37:28.019Z,91
2022-12-17T05:37:59.976Z,91
2022-12-17T05:38:31.886Z,91
2022-12-17T05:39:04.646Z,91
2022-12-17T05:39:36.083Z,91
2022-12-17T05:40:12.532Z,91
2022-12-17T05:40:39.815Z,91
2022-12-17T05:41:12.085Z,91
2022-12-17T05:41:43.818Z,91
2022-12-17T05:42:16.132Z,91
2022-12-17T05:42:47.634Z,91
2022-12-17T05:43:19.754Z,91
2022-12-17T05:43:51.925Z,91
2022-12-17T05:44:23.835Z,91
2022-12-17T05:44:55.818Z,91
2022-12-17T05:45:28.210Z,91
2022-12-17T05:45:59.673Z,91
2022-12-17T05:46:31.782Z,91
2022-12-17T05:47:04.450Z,91
2022-12-17T05:47:35.698Z,91
2022-12-17T05:47:51.735Z,91
2022-12-17T05:48:23.673Z,91
2022-12-17T05:49:07.604Z,91
2022-12-17T05:49:39.515Z,91
2022-12-17T05:50:11.952Z,91
2022-12-17T05:50:43.572Z,91
2022-12-17T05:51:15.694Z,91
2022-12-17T05:51:47.282Z,91
2022-12-17T05:52:19.350Z,91
2022-12-17T05:52:35.781Z,91
2022-12-17T05:53:19.365Z,91
2022-12-17T05:53:51.462Z,91
2022-12-17T05:54:23.342Z,91
2022-12-17T05:54:55.359Z,91
2022-12-17T05:55:29.398Z,91
2022-12-17T05:55:59.298Z,91
2022-12-17T05:56:31.142Z,91
2022-12-17T05:57:03.928Z,91
2022-12-17T05:57:35.424Z,91
2022-12-17T05:58:07.294Z,91
2022-12-17T05:58:39.150Z,91
2022-12-17T05:59:11.058Z,91
2022-12-17T05:59:43.407Z,91
2022-12-17T06:00:16.068Z,91
2022-12-17T06:00:46.923Z,91
2022-12-17T06:01:19.080Z,91
2022-12-17T06:01:35.379Z,91
2022-12-17T06:02:07.017Z,91
2022-12-17T06:02:23.204Z,91
2022-12-17T06:02:55.264Z,91
2022-12-17T06:03:26.943Z,91
2022-12-17T06:03:58.944Z,91
2022-12-17T06:04:31.058Z,91
2022-12-17T06:05:03.828Z,91
2022-12-17T06:05:34.912Z,91
2022-12-17T06:05:51.378Z,91
2022-12-17T06:06:22.849Z,91
2022-12-17T06:07:06.946Z,91
2022-12-17T06:07:38.680Z,91
2022-12-17T06:08:10.771Z,91
2022-12-17T06:08:42.992Z,91
2022-12-17T06:09:14.994Z,91
2022-12-17T06:09:46.576Z,91
2022-12-17T06:10:18.956Z,91
2022-12-17T06:10:34.820Z,91
2022-12-17T06:11:18.677Z,91
2022-12-17T06:11:50.904Z,91
2022-12-17T06:12:22.615Z,91
2022-12-17T06:12:54.674Z,91
2022-12-17T06:13:26.504Z,91
2022-12-17T06:13:58.385Z,91
2022-12-17T06:14:30.421Z,91
2022-12-17T06:15:06.025Z,91
2022-12-17T06:15:34.645Z,91
2022-12-17T06:16:06.402Z,92
2022-12-17T06:16:22.628Z,91
2022-12-17T06:16:54.638Z,91
2022-12-17T06:17:38.453Z,92
2022-12-17T06:18:16.315Z,92
2022-12-17T06:18:42.455Z,92
2022-12-17T06:19:14.413Z,92
2022-12-17T06:19:46.355Z,92
2022-12-17T06:20:18.564Z,92
2022-12-17T06:20:50.074Z,92
2022-12-17T06:21:06.359Z,92
2022-12-17T06:21:50.219Z,92
2022-12-17T06:22:06.356Z,92
2022-12-17T06:22:50.177Z,92
2022-12-17T06:23:22.578Z,92
2022-12-17T06:23:54.265Z,92
2022-12-17T06:24:26.121Z,92
2022-12-17T06:24:58.109Z,92
2022-12-17T06:25:30.316Z,92
2022-12-17T06:26:02.532Z,92
2022-12-17T06:26:34.142Z,92
2022-12-17T06:26:50.005Z,92
2022-12-17T06:27:22.142Z,92
2022-12-17T06:28:08.881Z,93
2022-12-17T06:28:37.755Z,93
2022-12-17T06:29:09.908Z,93
2022-12-17T06:29:41.962Z,93
2022-12-17T06:30:18.623Z,93
2022-12-17T06:30:45.881Z,93
2022-12-17T06:31:17.876Z,93
2022-12-17T06:31:34.169Z,93
2022-12-17T06:32:17.842Z,93
2022-12-17T06:32:49.738Z,93
2022-12-17T06:33:22.015Z,93
2022-12-17T06:33:53.719Z,93
2022-12-17T06:34:25.792Z,93
2022-12-17T06:34:57.781Z,93
2022-12-17T06:35:29.670Z,93
2022-12-17T06:36:02.049Z,93
2022-12-17T06:36:33.651Z,93
2022-12-17T06:37:05.751Z,93
2022-12-17T06:37:37.487Z,93
2022-12-17T06:38:09.563Z,93
2022-12-17T06:38:46.583Z,93
2022-12-17T06:39:13.526Z,93
2022-12-17T06:39:45.472Z,94
2022-12-17T06:40:17.561Z,94
2022-12-17T06:40:49.435Z,94
2022-12-17T06:41:21.675Z,94
2022-12-17T06:41:54.149Z,94
2022-12-17T06:42:25.665Z,94
2022-12-17T06:42:57.294Z,94
2022-12-17T06:43:29.258Z,94
2022-12-17T06:44:01.510Z,94
2022-12-17T06:44:33.248Z,94
2022-12-17T06:44:49.367Z,94
2022-12-17T06:45:21.853Z,94
2022-12-17T06:46:05.319Z,94
2022-12-17T06:46:37.147Z,94
2022-12-17T06:47:09.269Z,94
2022-12-17T06:47:41.153Z,94
2022-12-17T06:48:13.403Z,94
2022-12-17T06:48:45.198Z,94
2022-12-17T06:49:16.905Z,94
2022-12-17T06:49:33.178Z,94
2022-12-17T06:50:17.167Z,94
2022-12-17T06:50:49.148Z,94
2022-12-17T06:51:20.876Z,94
2022-12-17T06:51:52.919Z,94
2022-12-17T06:52:25.260Z,94
2022-12-17T06:52:56.969Z,94
2022-12-17T06:53:28.774Z,94
2022-12-17T06:54:00.986Z,94
2022-12-17T06:54:32.999Z,94
2022-12-17T06:55:05.687Z,94
2022-12-17T06:55:36.724Z,95
2022-12-17T06:56:08.684Z,95
2022-12-17T06:56:40.748Z,95
2022-12-17T06:57:12.803Z,95
2022-12-17T06:57:48.853Z,95
2022-12-17T06:58:16.572Z,95
2022-12-17T06:58:48.739Z,95
2022-12-17T06:59:20.697Z,95
2022-12-17T06:59:52.653Z,95
2022-12-17T07:00:25.828Z,95
2022-12-17T07:00:56.519Z,95
2022-12-17T07:01:28.661Z,95
2022-12-17T07:02:00.616Z,95
2022-12-17T07:02:32.621Z,95
2022-12-17T07:02:48.645Z,95
2022-12-17T07:03:20.380Z,95
2022-12-17T07:04:05.379Z,95
2022-12-17T07:04:36.436Z,95
2022-12-17T07:05:08.537Z,95
2022-12-17T07:05:40.365Z,95
2022-12-17T07:06:12.416Z,95
2022-12-17T07:06:44.215Z,95
2022-12-17T07:07:16.440Z,95
2022-12-17T07:07:32.511Z,95
2022-12-17T07:08:16.285Z,95
2022-12-17T07:08:48.250Z,95
2022-12-17T07:09:20.090Z,95
2022-12-17T07:09:52.272Z,95
2022-12-17T07:10:24.746Z,95
2022-12-17T07:10:56.161Z,95
2022-12-17T07:11:27.998Z,95
2022-12-17T07:12:00.156Z,95
2022-12-17T07:12:32.070Z,95
2022-12-17T07:13:04.906Z,95
2022-12-17T07:13:36.692Z,95
2022-12-17T07:14:08.046Z,95
2022-12-17T07:14:40.076Z,95
2022-12-17T07:15:13.320Z,95
2022-12-17T07:15:43.973Z,95
2022-12-17T07:16:16.046Z,95
2022-12-17T07:16:47.914Z,95
2022-12-17T07:17:19.886Z,95
2022-12-17T07:17:51.831Z,95
2022-12-17T07:18:23.815Z,96
2022-12-17T07:18:56.103Z,95
2022-12-17T07:19:27.872Z,95
2022-12-17T07:19:59.584Z,95
2022-12-17T07:20:31.988Z,96
2022-12-17T07:20:47.771Z,95
2022-12-17T07:21:19.690Z,95
2022-12-17T07:22:04.784Z,95
2022-12-17T07:22:35.830Z,95
2022-12-17T07:23:07.631Z,96
2022-12-17T07:23:39.899Z,96
2022-12-17T07:24:11.723Z,96
2022-12-17T07:24:43.416Z,96
2022-12-17T07:25:15.831Z,95
2022-12-17T07:25:47.650Z,95
2022-12-17T07:26:19.574Z,95
2022-12-17T07:26:51.786Z,95
2022-12-17T07:27:23.513Z,96